Nearby METAR Reports

 

KPTW - Pottstown, Pennsylvania, USA
Distance from station: NE 6mi, 10km
Updated: 12/14/2017 12:54pm
Partly Cloudy
Partly Cloudy
 Wind from NW
Wind: NW 10 mph , 17 km/h
Temperature: 28°F , -2°C
Wind Chill: 19°F , -7°C
Dew Point: 18°F , -8°C
Humidity: 64%
Barometer: 29.85 inHg , 1010.8 hPa
Clouds: Partly Cloudy
Visibility: 9 miles , 14 km
Cloud details: Partly Cloudy 3600 ft
2017/12/14 17:54 KPTW 141754Z AUTO 31009KT 9SM SCT036 M02/M08 A2985 RMK AO2 SLP108 T10171083 11011 21067 51021
KMQS - Coatesville, Pennsylvania, USA
Distance from station: SW 18mi, 29km
Updated: 12/14/2017 1:35pm
Mostly Cloudy
Mostly Cloudy
 Wind from WNW
Wind: WNW 14 mph , 22 km/h
Temperature: 28°F , -2°C
Wind Chill: 17°F , -8°C
Dew Point: 18°F , -8°C
Humidity: 64%
Barometer: 29.87 inHg , 1011.5 hPa
Clouds: Mostly Cloudy
Visibility: 10 miles , 16 km
Cloud details: Mostly Cloudy 3500 ft
2017/12/14 18:35 KMQS 141835Z AUTO 29012KT 10SM BKN035 M02/M08 A2987 RMK AO2
 
KLOM - Philly Wings F, Pennsylvania, USA
Distance from station: E 19mi, 31km
Updated: 12/14/2017 1:35pm
Mostly Cloudy
Mostly Cloudy
 Wind from WNW
Wind: WNW 9 mph , 15 km/h
Temperature: 30°F , -1°C
Wind Chill: 22°F , -6°C
Dew Point: 18°F , -8°C
Humidity: 59%
Barometer: 29.87 inHg , 1011.5 hPa
Clouds: Mostly Cloudy
Visibility: 10 miles , 16 km
Cloud details: Mostly Cloudy 3600 ft
Mostly Cloudy 4200 ft
2017/12/14 18:35 KLOM 141835Z AUTO 30008KT 10SM BKN036 BKN042 M01/M08 A2987 RMK AO1
KRDG - Reading, Pennsylvania, USA
Distance from station: NW 22mi, 36km
Updated: 12/14/2017 12:54pm
Partly Cloudy
Partly Cloudy
 Wind from WNW
Wind: WNW 18 mph , 30 km/h
Temperature: 30°F , -1°C
Wind Chill: 18°F , -8°C
Dew Point: 19°F , -7°C
Humidity: 64%
Barometer: 29.84 inHg , 1010.5 hPa
Clouds: Partly Cloudy
Visibility: 10 miles , 16 km
Cloud details: Partly Cloudy 4000 ft
2017/12/14 17:54 KRDG 141754Z 29016KT 10SM SCT040 M01/M07 A2984 RMK AO2 SLP112 60000 T10111072 11006 21056 51035
 
KUKT - Quakertown Arp, Pennsylvania, USA
Distance from station: NE 22mi, 36km
Updated: 12/14/2017 1:35pm
Mostly Cloudy
Mostly Cloudy
 Wind from W
Wind: W 9 mph , 15 km/h
Temperature: 28°F , -2°C
Wind Chill: 19°F , -7°C
Dew Point: 16°F , -9°C
Humidity: 59%
Barometer: 29.85 inHg , 1010.8 hPa
Clouds: Mostly Cloudy
Visibility: 10 miles , 16 km
Cloud details: Mostly Cloudy 3500 ft
Mostly Cloudy 4200 ft
2017/12/14 18:35 KUKT 141835Z AUTO 28008KT 10SM BKN035 BKN042 M02/M09 A2985 RMK AO1
KXLL - Allentown Queen, Pennsylvania, USA
Distance from station: NNE 28mi, 46km
Updated: 12/14/2017 1:35pm
Mostly Cloudy
Mostly Cloudy
 Wind from WNW
Wind: WNW 12 mph , 19 km/h, Gust: 16 mph , 26 km/h
Temperature: 30°F , -1°C
Wind Chill: 20°F , -7°C
Dew Point: 16°F , -9°C
Humidity: 55%
Barometer: 29.86 inHg , 1011.2 hPa
Clouds: Mostly Cloudy
Visibility: 10 miles , 16 km
Cloud details: Mostly Cloudy 3900 ft
Mostly Cloudy 4400 ft
Mostly Cloudy 5000 ft
2017/12/14 18:35 KXLL 141835Z AUTO 29010G14KT 260V320 10SM BKN039 BKN044 BKN050 M01/M09 A2986 RMK AO2
 
KDYL - Doylestown, Pennsylvania, USA
Distance from station: ENE 29mi, 47km
Updated: 12/14/2017 12:54pm
Few Clouds
Few Clouds
 Wind from NW
Wind: NW 9 mph , 15 km/h, Gust: 21 mph , 33 km/h
Temperature: 30°F , -1°C
Wind Chill: 22°F , -6°C
Dew Point: 16°F , -9°C
Humidity: 55%
Barometer: 29.80 inHg , 1009.1 hPa
Clouds: Few Clouds
Visibility: 10 miles , 16 km
Cloud details: Few Clouds 3300 ft
2017/12/14 17:54 KDYL 141754Z AUTO 31008G18KT 10SM FEW033 M01/M09 A2980 RMK AO2 SLP102 60000 T10111089 11006 21056 51036
KPHL - Philadelphia, Pennsylvania, USA
Distance from station: SE 30mi, 48km
Updated: 12/14/2017 12:54pm
Partly Cloudy
Partly Cloudy
 Wind from WNW
Wind: WNW 9 mph , 15 km/h, Gust: 20 mph , 31 km/h
Temperature: 34°F , 1°C
Wind Chill: 27°F , -3°C
Dew Point: 19°F , -7°C
Humidity: 56%
Barometer: 29.85 inHg , 1010.8 hPa
Clouds: Partly Cloudy
Visibility: 10 miles , 16 km
Cloud details: Partly Cloudy 3500 ft
2017/12/14 17:54 KPHL 141754Z 30008G17KT 10SM SCT035 01/M07 A2985 RMK AO2 SLP107 T00111072 10028 20000 51042
 
KPNE - Philadelphia/Ne, Pennsylvania, USA
Distance from station: E 33mi, 53km
Updated: 12/14/2017 12:54pm
Few Clouds
Few Clouds
 Wind from NW
Wind: NW 12 mph , 19 km/h
Temperature: 34°F , 1°C
Wind Chill: 25°F , -4°C
Dew Point: 18°F , -8°C
Humidity: 51%
Barometer: 29.84 inHg , 1010.5 hPa
Clouds: Few Clouds
Visibility: 10 miles , 16 km
Cloud details: Few Clouds 3600 ft
2017/12/14 17:54 KPNE 141754Z 31010KT 10SM FEW036 01/M08 A2984 RMK AO2 SLP104 T00111078 10017 21028 51038
KABE - Allentown, Pennsylvania, USA
Distance from station: NNE 34mi, 55km
Updated: 12/14/2017 12:51pm
Overcast
Overcast
 Wind from NNW
Wind: NNW 13 mph , 20 km/h
Temperature: 30°F , -1°C
Wind Chill: 20°F , -7°C
Dew Point: 16°F , -9°C
Humidity: 55%
Barometer: 29.81 inHg , 1009.5 hPa
Clouds: Overcast
Visibility: 10 miles , 16 km
Cloud details: Overcast 3800 ft
2017/12/14 17:51 KABE 141751Z 33011KT 10SM OVC038 M01/M09 A2981 RMK AO2 SLP100 60000 T10111094 11011 21056 51033
 
KILG - Wilmington, Delaware, USA
Distance from station: S 35mi, 56km
Updated: 12/14/2017 12:51pm
Clear
Clear
 Wind from WNW
Wind: WNW 16 mph , 26 km/h
Temperature: 34°F , 1°C
Wind Chill: 24°F , -4°C
Dew Point: 19°F , -7°C
Humidity: 56%
Barometer: 29.88 inHg , 1011.9 hPa
Clouds: Clear
Visibility: 10 miles , 16 km
2017/12/14 17:51 KILG 141751Z 30014KT 10SM CLR 01/M07 A2988 RMK AO2 SLP119 60000 T00111072 10028 20000 51049 $
KLNS - Lancaster, Pennsylvania, USA
Distance from station: W 36mi, 57km
Updated: 12/14/2017 12:53pm
Partly Cloudy
Partly Cloudy
 Wind from NW
Wind: NW 14 mph , 22 km/h
Temperature: 30°F , -1°C
Wind Chill: 19°F , -7°C
Dew Point: 18°F , -8°C
Humidity: 59%
Barometer: 29.86 inHg , 1011.2 hPa
Clouds: Partly Cloudy
Visibility: 10 miles , 16 km
Cloud details: Partly Cloudy 4100 ft
2017/12/14 17:53 KLNS 141753Z 32012KT 10SM SCT041 M01/M08 A2986 RMK AO2 SLP117 T10111078 11006 21044 51036
 
KTTN - Trenton, New Jersey, USA
Distance from station: E 44mi, 70km
Updated: 12/14/2017 12:53pm
Clear
Clear
 Wind from WNW
Wind: WNW 12 mph , 19 km/h, Gust: 18 mph , 30 km/h
Temperature: 32°F , 0°C
Wind Chill: 23°F , -5°C
Dew Point: 18°F , -8°C
Humidity: 55%
Barometer: 29.80 inHg , 1009.1 hPa
Clouds: Clear
Visibility: 10 miles , 16 km
2017/12/14 17:53 KTTN 141753Z 30010G16KT 270V330 10SM CLR 00/M08 A2980 RMK AO2 SLP087 T00001078 10000 21044 51036
KVAY - Mount Holly, New Jersey, USA
Distance from station: ESE 45mi, 73km
Updated: 12/14/2017 12:54pm
Partly Cloudy
Partly Cloudy
 Wind from W
Wind: W 13 mph , 20 km/h, Gust: 24 mph , 39 km/h
Temperature: 32°F , 0°C
Wind Chill: 22°F , -6°C
Dew Point: 19°F , -7°C
Humidity: 60%
Barometer: 29.83 inHg , 1010.2 hPa
Clouds: Partly Cloudy
Visibility: 10 miles , 16 km
Cloud details: Partly Cloudy 3300 ft
2017/12/14 17:54 KVAY 141754Z AUTO 28011G21KT 10SM SCT033 00/M07 A2983 RMK AO2 SLP100 T00001072 10006 21028 51040
 
KMUI - Muir Aaf/Indiant, Pennsylvania, USA
Distance from station: WNW 52mi, 84km
Updated: 12/14/2017 12:56pm
Mostly Cloudy
Mostly Cloudy
 Wind from WNW
Wind: WNW 13 mph , 20 km/h, Gust: 21 mph , 33 km/h
Temperature: 30°F , -1°C
Wind Chill: 20°F , -7°C
Dew Point: 12°F , -11°C
Humidity: 47%
Barometer: 29.86 inHg , 1011.2 hPa
Clouds: Mostly Cloudy
Visibility: 10 miles , 16 km
Cloud details: Mostly Cloudy 4400 ft
2017/12/14 17:56 KMUI 141756Z 29011G18KT 10SM BKN044 M01/M11 A2986 RMK AO2A SLP121 T10101106 11010 21067 52029
KAPG - Aberdeen/Phillip, Maryland, USA
Distance from station: SSW 56mi, 91km
Updated: 12/14/2017 12:58pm
Mostly Cloudy
Mostly Cloudy
 Wind from NW
Wind: NW 9 mph , 15 km/h
Temperature: 36°F , 2°C
Wind Chill: 29°F , -2°C
Dew Point: 25°F , -4°C
Humidity: 65%
Barometer: 29.89 inHg , 1012.2 hPa
Clouds: Mostly Cloudy
Visibility: 9 miles , 14 km
Cloud details: Mostly Cloudy 5000 ft
2017/12/14 17:58 KAPG 141758Z 31008KT 9SM BKN050 02/M04 A2989 RMK AO2A SLPNO 60001 52040 $
 
KWRI - Wrightst/Mcguire, New Jersey, USA
Distance from station: E 56mi, 91km
Updated: 12/14/2017 12:56pm
Partly Cloudy
Partly Cloudy
 Wind from WNW
Wind: WNW 14 mph , 22 km/h, Gust: 22 mph , 35 km/h
Temperature: 32°F , 0°C
Wind Chill: 22°F , -6°C
Dew Point: 21°F , -6°C
Humidity: 64%
Barometer: 29.78 inHg , 1008.5 hPa
Clouds: Partly Cloudy
Visibility: 10 miles , 16 km
Cloud details: Partly Cloudy 3200 ft
2017/12/14 17:56 KWRI 141756Z AUTO 30012G19KT 10SM SCT032 00/M06 A2978 RMK AO2 SLP086 T00021060 10005 21036 52039
KSMQ - Somerville, New Jersey, USA
Distance from station: ENE 59mi, 96km
Updated: 12/14/2017 12:53pm
Partly Cloudy
Partly Cloudy
 Wind from WNW
Wind: WNW 10 mph , 17 km/h
Temperature: 32°F , 0°C
Wind Chill: 24°F , -4°C
Dew Point: 18°F , -8°C
Humidity: 55%
Barometer: 29.78 inHg , 1008.5 hPa
Clouds: Partly Cloudy
Visibility: 10 miles , 16 km
Cloud details: Partly Cloudy 4400 ft
2017/12/14 17:53 KSMQ 141753Z AUTO 30009KT 260V330 10SM SCT044 00/M08 A2978 RMK AO2 SLP088 60000 T00001078 10000 21050 51031
 
KMDT - Middletown, Pennsylvania, USA
Distance from station: W 60mi, 97km
Updated: 12/14/2017 12:56pm
Partly Cloudy
Partly Cloudy
 Wind from WNW
Wind: WNW 13 mph , 20 km/h
Temperature: 34°F , 1°C
Wind Chill: 25°F , -4°C
Dew Point: 18°F , -8°C
Humidity: 51%
Barometer: 29.87 inHg , 1011.5 hPa
Clouds: Partly Cloudy
Visibility: 10 miles , 16 km
Cloud details: Partly Cloudy 4500 ft
2017/12/14 17:56 KMDT 141756Z 30011KT 10SM SCT045 01/M08 A2987 RMK AO2 PK WND 32027/1657 SLP118 60000 T00061083 10006 21044 53026
KMIV - Millville, New Jersey, USA
Distance from station: SSE 63mi, 101km
Updated: 12/14/2017 12:54pm
Clear
Clear
 Wind from WNW
Wind: WNW 18 mph , 30 km/h, Gust: 26 mph , 43 km/h
Temperature: 36°F , 2°C
Wind Chill: 26°F , -3°C
Dew Point: 23°F , -5°C
Humidity: 60%
Barometer: 29.85 inHg , 1010.8 hPa
Clouds: Clear
Visibility: 10 miles , 16 km
2017/12/14 17:54 KMIV 141754Z AUTO 30016G23KT 10SM CLR 02/M05 A2985 RMK AO2 PK WND 30026/1734 SLP107 60000 T00171050 10039 20011 51047